Time;durP1;ratioP1;P1;durP2;ratioP2;P2;SDS_P1;SDS_P2;PMS_P1;PMS_P2;Temp;Humidity;BMP_temperature;BMP_pressure;BME280_temperature;BME280_humidity;BME280_pressure;Samples;Min_cycle;Max_cycle;Signal;HPM_P1;HPM_P2
2022/08/16 00:00:27;;;;;;;7.18;4.03;;;;;;;21.61;92.45;99356.09;4895791;29;20135;-66
2022/08/16 00:02:53;;;;;;;6.88;4.13;;;;;;;21.65;92.23;99365.63;4895489;29;20115;-66
2022/08/16 00:05:21;;;;;;;5.75;3.42;;;;;;;21.66;91.94;99367.38;4895908;29;20039;-66
2022/08/16 00:07:48;;;;;;;8.50;4.10;;;;;;;21.66;91.77;99353.84;4895841;29;20043;-65
2022/08/16 00:10:15;;;;;;;5.60;3.80;;;;;;;21.67;91.81;99355.53;4895448;29;20039;-65
2022/08/16 00:12:41;;;;;;;6.65;4.07;;;;;;;21.69;91.98;99356.28;4895674;29;20128;-66
2022/08/16 00:15:22;;;;;;;6.70;4.30;;;;;;;21.65;92.25;99354.81;4895602;29;20110;-66
2022/08/16 00:17:47;;;;;;;5.68;3.58;;;;;;;21.67;92.10;99363.66;4895671;29;20033;-66
2022/08/16 00:20:13;;;;;;;7.07;4.03;;;;;;;21.67;92.46;99352.84;4895659;29;20504;-66
2022/08/16 00:22:42;;;;;;;6.65;3.75;;;;;;;21.67;92.70;99358.25;4895452;29;20405;-66
2022/08/16 00:25:11;;;;;;;7.47;4.40;;;;;;;21.67;93.71;99358.25;4879020;29;20037;-66
2022/08/16 00:27:36;;;;;;;7.70;4.53;;;;;;;21.65;94.24;99360.22;4888448;29;20385;-66
2022/08/16 00:30:04;;;;;;;7.32;4.43;;;;;;;21.64;94.00;99355.81;4895643;29;20126;-66
2022/08/16 00:32:29;;;;;;;6.57;4.07;;;;;;;21.64;93.88;99353.09;4895525;29;20034;-66
2022/08/16 00:34:54;;;;;;;6.63;4.03;;;;;;;21.64;93.38;99350.41;4895527;29;20449;-66
2022/08/16 00:37:24;;;;;;;7.95;4.05;;;;;;;21.65;93.89;99346.69;4895144;29;20017;-65
2022/08/16 00:39:52;;;;;;;7.47;4.43;;;;;;;21.60;93.75;99347.09;4897209;29;20488;-65
2022/08/16 00:42:17;;;;;;;8.73;4.65;;;;;;;21.61;93.91;99350.69;4895754;29;20408;-65
2022/08/16 00:44:49;;;;;;;7.45;4.18;;;;;;;21.60;94.14;99348.94;4895331;29;20036;-66
2022/08/16 00:47:17;;;;;;;7.63;4.03;;;;;;;21.63;94.87;99348.69;4895396;29;20513;-66
2022/08/16 00:49:42;;;;;;;5.88;3.97;;;;;;;21.63;95.10;99352.25;4898882;29;20115;-66
2022/08/16 00:52:08;;;;;;;8.75;4.43;;;;;;;21.62;94.95;99349.69;4899459;29;20450;-66
2022/08/16 00:54:35;;;;;;;6.32;4.15;;;;;;;21.59;95.45;99355.38;4898981;29;20038;-66
2022/08/16 00:57:01;;;;;;;7.30;4.55;;;;;;;21.56;95.16;99359.22;4897801;29;20035;-66
2022/08/16 00:59:32;;;;;;;9.10;4.00;;;;;;;21.57;94.59;99354.63;4898612;29;20048;-66
2022/08/16 01:01:58;;;;;;;7.70;4.47;;;;;;;21.60;94.25;99360.63;4899357;29;20040;-66
2022/08/16 01:04:26;;;;;;;10.75;4.78;;;;;;;21.60;93.91;99367.91;4901002;29;20072;-66
2022/08/16 01:06:52;;;;;;;13.38;4.40;;;;;;;21.62;93.35;99355.09;4898906;29;20060;-66
2022/08/16 01:09:18;;;;;;;8.90;4.38;;;;;;;21.61;93.18;99358.81;4881372;29;20037;-66
2022/08/16 01:11:44;;;;;;;9.57;4.55;;;;;;;21.60;92.46;99357.06;4898916;29;20104;-66
2022/08/16 01:14:17;;;;;;;8.15;4.63;;;;;;;21.61;92.38;99353.38;4899070;29;20517;-66
2022/08/16 01:16:45;;;;;;;7.57;3.95;;;;;;;21.58;93.10;99348.25;4898715;29;20039;-65
2022/08/16 01:19:16;;;;;;;8.20;4.32;;;;;;;21.65;92.74;99358.38;4898448;29;20069;-66
2022/08/16 01:22:20;;;;;;;9.90;4.03;;;;;;;21.64;92.34;99356.69;4898708;29;20035;-66
2022/08/16 01:24:50;;;;;;;8.02;3.95;;;;;;;21.65;92.20;99363.81;4869369;29;20048;-64
2022/08/16 01:27:20;;;;;;;6.15;4.18;;;;;;;21.64;92.19;99358.53;4908929;29;20040;-64
2022/08/16 01:29:53;;;;;;;9.07;4.05;;;;;;;21.63;92.03;99362.25;4917290;29;20032;-64
2022/08/16 01:32:19;;;;;;;8.25;4.65;;;;;;;21.66;92.21;99367.38;4908249;29;20068;-64
2022/08/16 01:34:45;;;;;;;8.05;4.07;;;;;;;21.67;92.02;99375.34;4898234;29;20417;-64
2022/08/16 01:37:12;;;;;;;5.63;3.65;;;;;;;21.66;91.82;99367.38;4898358;29;20024;-64
2022/08/16 01:39:38;;;;;;;6.82;4.00;;;;;;;21.68;92.17;99376.22;4898337;29;20070;-66
2022/08/16 01:42:09;;;;;;;7.80;4.05;;;;;;;21.67;91.97;99364.53;4898356;29;20437;-66
2022/08/16 01:44:37;;;;;;;7.50;4.25;;;;;;;21.67;91.71;99366.38;4898237;29;20465;-65
2022/08/16 01:47:04;;;;;;;8.68;4.85;;;;;;;21.66;91.71;99370.09;4896874;29;20033;-65
2022/08/16 01:49:35;;;;;;;11.80;4.32;;;;;;;21.68;91.25;99365.41;4896766;29;20107;-65
2022/08/16 01:52:07;;;;;;;6.75;4.15;;;;;;;21.64;91.27;99363.94;4896731;29;20037;-65
2022/08/16 01:54:33;;;;;;;7.20;4.20;;;;;;;21.63;91.60;99351.41;4896992;29;20044;-65
2022/08/16 01:57:00;;;;;;;5.88;3.72;;;;;;;21.62;91.26;99355.09;4897658;29;20463;-65
2022/08/16 01:59:28;;;;;;;7.60;3.70;;;;;;;21.60;91.28;99357.06;4896450;29;20035;-65
2022/08/16 02:01:54;;;;;;;7.35;4.80;;;;;;;21.59;91.36;99349.94;4897763;29;20366;-65
2022/08/16 02:04:21;;;;;;;7.32;4.22;;;;;;;21.57;91.25;99352.78;4897742;29;20032;-65
2022/08/16 02:06:47;;;;;;;6.82;4.30;;;;;;;21.59;91.71;99360.78;4897619;29;20036;-65
2022/08/16 02:09:13;;;;;;;6.82;3.92;;;;;;;21.57;91.56;99351.94;4897804;29;20088;-65
2022/08/16 02:11:43;;;;;;;7.82;4.13;;;;;;;21.53;92.54;99354.03;4897905;29;20040;-65
2022/08/16 02:14:09;;;;;;;7.18;4.07;;;;;;;21.52;92.34;99356.88;4897652;29;20032;-65
2022/08/16 02:16:35;;;;;;;6.10;4.18;;;;;;;21.54;92.57;99349.50;4897732;29;20035;-65
2022/08/16 02:19:00;;;;;;;6.80;4.10;;;;;;;21.51;93.00;99350.63;4897527;29;20036;-65
2022/08/16 02:21:27;;;;;;;8.68;4.20;;;;;;;21.52;92.50;99348.78;4896951;29;20145;-65
2022/08/16 02:23:52;;;;;;;6.78;4.40;;;;;;;21.49;92.58;99341.78;4895773;29;20059;-65
2022/08/16 02:26:18;;;;;;;8.93;4.20;;;;;;;21.46;92.24;99333.94;4895841;29;20060;-65
2022/08/16 02:28:43;;;;;;;6.97;4.18;;;;;;;21.49;91.92;99332.81;4896098;29;20381;-65
2022/08/16 02:31:11;;;;;;;9.15;4.80;;;;;;;21.47;92.19;99340.19;4896231;29;20408;-65
2022/08/16 02:33:37;;;;;;;6.80;3.75;;;;;;;21.46;92.78;99333.09;4897936;29;20021;-65
2022/08/16 02:36:03;;;;;;;10.13;4.22;;;;;;;21.48;92.80;99341.94;4895361;29;20050;-65
2022/08/16 02:38:29;;;;;;;7.90;4.47;;;;;;;21.47;92.71;99335.66;4897088;29;20107;-66
2022/08/16 02:40:56;;;;;;;6.93;4.15;;;;;;;21.46;92.74;99338.50;4897324;29;20168;-65
2022/08/16 02:43:24;;;;;;;6.20;4.32;;;;;;;21.44;93.84;99345.88;4896938;29;20519;-65
2022/08/16 02:45:50;;;;;;;7.63;4.63;;;;;;;21.37;94.56;99339.28;4897105;29;20476;-65
2022/08/16 02:48:15;;;;;;;7.38;5.03;;;;;;;21.32;94.30;99330.72;4896994;29;20180;-65
2022/08/16 02:50:41;;;;;;;7.82;3.70;;;;;;;21.28;94.66;99331.97;4895749;29;20036;-65
2022/08/16 02:53:07;;;;;;;6.90;3.95;;;;;;;21.25;94.81;99324.97;4896993;29;20373;-65
2022/08/16 02:55:32;;;;;;;7.00;4.15;;;;;;;21.29;94.85;99325.56;4897050;29;20032;-65
2022/08/16 02:57:57;;;;;;;6.25;3.88;;;;;;;21.31;94.61;99326.31;4896903;29;20425;-65
2022/08/16 03:00:23;;;;;;;8.05;4.68;;;;;;;21.33;94.32;99319.78;4896310;29;20064;-65
2022/08/16 03:02:48;;;;;;;6.25;4.07;;;;;;;21.33;93.65;99322.50;4896594;29;20413;-65
2022/08/16 03:05:14;;;;;;;9.65;4.85;;;;;;;21.31;93.56;99319.06;4896511;29;20029;-65
2022/08/16 03:07:40;;;;;;;7.95;4.22;;;;;;;21.36;93.66;99322.22;4899068;29;20033;-65
2022/08/16 03:10:08;;;;;;;12.70;4.68;;;;;;;21.37;93.78;99323.03;4896739;29;20035;-65
2022/08/16 03:12:34;;;;;;;11.07;4.53;;;;;;;21.36;93.66;99329.47;4895599;29;20112;-65
2022/08/16 03:15:00;;;;;;;47.17;9.05;;;;;;;21.34;93.97;99323.31;4896517;29;20160;-65
2022/08/16 03:17:26;;;;;;;24.60;5.65;;;;;;;21.34;93.59;99320.63;4898849;29;20027;-65
2022/08/16 03:19:52;;;;;;;7.80;4.68;;;;;;;21.27;94.25;99311.34;4896209;29;20408;-65
2022/08/16 03:22:19;;;;;;;8.43;4.13;;;;;;;21.14;95.00;99314.25;4896732;29;20054;-65
2022/08/16 03:24:45;;;;;;;13.30;4.95;;;;;;;21.09;95.08;99310.25;4896388;29;20528;-65
2022/08/16 03:27:10;;;;;;;9.65;4.60;;;;;;;21.05;95.65;99309.66;4896302;29;20025;-65
2022/08/16 03:29:36;;;;;;;7.75;4.63;;;;;;;21.08;95.63;99319.31;4896349;29;20066;-65
2022/08/16 03:32:02;;;;;;;8.75;3.75;;;;;;;20.98;96.17;99321.09;4896058;29;20029;-65
2022/08/16 03:34:29;;;;;;;7.25;4.63;;;;;;;20.86;96.11;99304.91;4895921;29;20048;-65
2022/08/16 03:36:56;;;;;;;8.18;4.20;;;;;;;20.78;96.54;99299.31;4895951;29;20033;-65
2022/08/16 03:39:21;;;;;;;11.10;4.70;;;;;;;20.81;96.54;99307.16;4896180;29;20039;-65
2022/08/16 03:41:48;;;;;;;10.88;4.85;;;;;;;20.77;96.93;99313.81;4896078;29;20024;-65
2022/08/16 03:44:13;;;;;;;19.48;4.93;;;;;;;20.75;97.32;99312.22;4896317;29;20034;-65
2022/08/16 03:46:39;;;;;;;32.42;8.13;;;;;;;20.73;97.75;99301.56;4895775;29;20028;-65
2022/08/16 03:49:05;;;;;;;32.60;6.38;;;;;;;20.69;97.01;99302.78;4895877;29;20342;-65
2022/08/16 03:51:31;;;;;;;6.05;4.03;;;;;;;20.71;97.40;99302.66;4895853;29;20442;-65
2022/08/16 03:53:56;;;;;;;18.83;5.47;;;;;;;20.69;97.35;99300.09;4896032;29;20058;-65
2022/08/16 03:56:22;;;;;;;24.50;5.47;;;;;;;20.68;98.16;99306.50;4895693;29;20032;-65
2022/08/16 03:58:48;;;;;;;15.00;5.55;;;;;;;20.62;98.28;99314.25;4895808;29;20039;-65
2022/08/16 04:01:13;;;;;;;52.92;9.45;;;;;;;20.61;99.07;99310.69;4895699;29;20053;-65
2022/08/16 04:03:39;;;;;;;10.90;5.38;;;;;;;20.54;98.55;99306.78;4895787;29;20038;-65
2022/08/16 04:06:06;;;;;;;10.32;5.32;;;;;;;20.51;98.78;99312.47;4877381;29;20024;-65
2022/08/16 04:08:32;;;;;;;7.25;4.55;;;;;;;20.50;98.94;99318.00;4877206;29;20028;-65
2022/08/16 04:10:57;;;;;;;8.60;4.25;;;;;;;20.47;98.95;99316.41;4876927;29;20283;-65
2022/08/16 04:13:23;;;;;;;8.50;5.07;;;;;;;20.45;99.40;99318.38;4877135;29;20033;-65
2022/08/16 04:15:51;;;;;;;6.68;4.18;;;;;;;20.41;99.20;99318.78;4877021;29;20068;-65
2022/08/16 04:18:16;;;;;;;9.57;4.70;;;;;;;20.40;98.80;99323.31;4876727;29;20033;-65
2022/08/16 04:20:42;;;;;;;7.53;4.85;;;;;;;20.39;99.47;99321.63;4877069;29;20039;-65
2022/08/16 04:23:09;;;;;;;6.93;4.78;;;;;;;20.38;99.19;99322.56;4878432;29;20029;-65
2022/08/16 04:25:35;;;;;;;7.40;4.57;;;;;;;20.39;98.80;99332.41;4880794;29;20120;-65
2022/08/16 04:28:01;;;;;;;8.38;4.47;;;;;;;20.40;98.90;99320.63;4880768;29;20033;-65
2022/08/16 04:30:26;;;;;;;12.38;4.75;;;;;;;20.39;98.67;99318.91;4880697;29;20583;-65
2022/08/16 04:32:52;;;;;;;7.20;4.75;;;;;;;20.36;98.53;99318.31;4893807;29;20489;-65
2022/08/16 04:35:21;;;;;;;8.27;5.00;;;;;;;20.38;98.57;99321.72;4899494;29;20345;-65
2022/08/16 04:37:47;;;;;;;7.60;5.00;;;;;;;20.36;98.16;99323.72;4899320;29;20028;-65
2022/08/16 04:40:15;;;;;;;20.00;5.82;;;;;;;20.36;98.41;99332.66;4901450;29;20028;-65
2022/08/16 04:42:41;;;;;;;15.10;5.15;;;;;;;20.37;99.08;99334.38;4899075;29;20060;-65
2022/08/16 04:45:10;;;;;;;10.27;5.18;;;;;;;20.37;98.64;99336.22;4898775;29;20033;-65
2022/08/16 04:47:35;;;;;;;6.53;4.68;;;;;;;20.36;99.22;99329.94;4899222;29;20037;-65
2022/08/16 04:50:14;;;;;;;9.13;5.40;;;;;;;20.30;99.13;99325.06;4899327;29;20565;-65
2022/08/16 04:52:39;;;;;;;9.13;4.63;;;;;;;20.35;99.14;99344.44;4899177;29;20068;-65
2022/08/16 04:55:10;;;;;;;8.73;5.05;;;;;;;20.32;99.45;99339.31;4899125;29;20063;-65
2022/08/16 04:57:36;;;;;;;10.77;5.85;;;;;;;20.32;99.30;99339.31;4898475;29;20054;-65
2022/08/16 05:00:05;;;;;;;9.95;5.43;;;;;;;20.37;99.09;99345.19;4898401;29;20108;-65
2022/08/16 05:02:31;;;;;;;8.38;5.03;;;;;;;20.37;98.72;99347.88;4898531;29;20029;-65
2022/08/16 05:04:56;;;;;;;15.43;6.90;;;;;;;20.39;99.03;99359.44;4898285;29;20716;-65
2022/08/16 05:07:22;;;;;;;12.50;5.80;;;;;;;20.38;99.32;99352.28;4898100;29;20384;-65
2022/08/16 05:09:47;;;;;;;23.73;5.38;;;;;;;20.42;99.67;99356.47;4897936;29;20095;-65
2022/08/16 05:12:12;;;;;;;9.32;4.93;;;;;;;20.45;99.03;99361.63;4900346;29;20025;-65
2022/08/16 05:14:38;;;;;;;9.25;4.72;;;;;;;20.48;99.16;99357.78;4898607;29;20028;-65
2022/08/16 05:17:03;;;;;;;9.63;5.43;;;;;;;20.50;98.92;99363.94;4898670;29;20450;-65
2022/08/16 05:19:29;;;;;;;6.75;5.10;;;;;;;20.55;98.79;99357.16;4898725;29;20471;-65
2022/08/16 05:21:54;;;;;;;7.82;4.75;;;;;;;20.62;98.68;99361.06;4900875;29;20032;-65
2022/08/16 05:24:19;;;;;;;7.60;4.90;;;;;;;20.70;98.04;99365.81;4898720;29;20033;-65
2022/08/16 05:26:45;;;;;;;8.95;5.88;;;;;;;20.78;97.47;99364.19;4898228;29;20029;-65
2022/08/16 05:29:10;;;;;;;6.90;4.72;;;;;;;20.87;96.91;99363.41;4898513;29;20048;-65
2022/08/16 05:31:35;;;;;;;9.68;5.45;;;;;;;21.00;96.80;99365.09;4898515;29;20024;-65
2022/08/16 05:34:02;;;;;;;8.25;5.47;;;;;;;21.07;96.11;99371.72;4897787;29;20028;-65
2022/08/16 05:36:28;;;;;;;11.68;5.63;;;;;;;21.15;95.49;99369.19;4897889;29;20466;-65
2022/08/16 05:38:54;;;;;;;10.30;5.40;;;;;;;21.28;94.79;99375.28;4897863;29;20036;-65
2022/08/16 05:41:19;;;;;;;11.77;6.80;;;;;;;21.44;94.20;99378.34;4896395;29;20036;-65
2022/08/16 05:43:45;;;;;;;9.50;5.13;;;;;;;21.59;93.71;99371.59;4896635;29;20056;-65
2022/08/16 05:46:12;;;;;;;8.35;4.88;;;;;;;21.82;92.08;99384.88;4896461;29;20504;-65
2022/08/16 05:48:37;;;;;;;9.35;4.90;;;;;;;21.96;90.71;99387.19;4896382;29;20464;-65
2022/08/16 05:51:03;;;;;;;7.88;4.90;;;;;;;22.07;89.71;99388.97;4896434;29;20079;-65
2022/08/16 05:53:28;;;;;;;7.05;4.53;;;;;;;22.10;89.20;99388.69;4896536;29;20028;-65
2022/08/16 05:55:54;;;;;;;7.25;4.47;;;;;;;22.16;88.91;99397.13;4894058;29;20032;-65
2022/08/16 05:58:19;;;;;;;8.35;5.20;;;;;;;22.25;88.54;99386.44;4879132;29;20033;-65
2022/08/16 06:00:45;;;;;;;11.05;4.53;;;;;;;22.28;88.55;99397.88;4879028;29;20045;-65
2022/08/16 06:03:10;;;;;;;10.20;4.90;;;;;;;22.30;87.79;99385.03;4883570;29;20029;-65
2022/08/16 06:05:37;;;;;;;8.48;4.45;;;;;;;22.35;87.89;99385.47;4879276;29;20057;-65
2022/08/16 06:08:02;;;;;;;8.07;4.70;;;;;;;22.41;87.07;99392.19;4879125;29;20120;-65
2022/08/16 06:10:28;;;;;;;7.75;4.50;;;;;;;22.55;86.56;99390.00;4878910;29;20315;-65
2022/08/16 06:12:53;;;;;;;6.95;4.57;;;;;;;22.61;85.93;99383.13;4878790;29;20033;-65
2022/08/16 06:15:19;;;;;;;7.60;4.93;;;;;;;22.69;86.14;99396.81;4878968;29;20107;-64
2022/08/16 06:17:46;;;;;;;8.88;4.90;;;;;;;22.82;85.38;99394.69;4890729;29;20029;-64
2022/08/16 06:20:18;;;;;;;10.10;4.55;;;;;;;22.94;85.08;99402.56;4897367;29;20021;-64
2022/08/16 06:22:44;;;;;;;8.23;4.38;;;;;;;23.06;83.97;99392.44;4897478;29;20041;-64
2022/08/16 06:25:11;;;;;;;7.32;4.38;;;;;;;23.16;83.47;99399.56;4897340;29;20092;-64
2022/08/16 06:27:38;;;;;;;7.07;4.72;;;;;;;23.26;83.14;99403.16;4897360;29;20040;-64
2022/08/16 06:30:06;;;;;;;8.25;4.45;;;;;;;23.42;81.64;99408.00;4897297;29;20032;-64
2022/08/16 06:32:31;;;;;;;8.15;4.82;;;;;;;23.54;81.03;99400.53;4897064;29;20032;-64
2022/08/16 06:34:56;;;;;;;8.90;4.75;;;;;;;23.63;80.44;99399.66;4897790;29;20080;-64
2022/08/16 06:37:22;;;;;;;5.88;4.00;;;;;;;23.72;79.87;99398.78;4896817;29;20025;-64
2022/08/16 06:39:47;;;;;;;6.53;3.95;;;;;;;23.83;78.49;99401.31;4896003;29;20488;-64
2022/08/16 06:42:13;;;;;;;7.05;4.30;;;;;;;23.85;78.15;99407.47;4896924;29;20438;-64
2022/08/16 06:44:38;;;;;;;9.30;4.10;;;;;;;23.90;78.09;99411.47;4899452;29;20115;-64
2022/08/16 06:47:04;;;;;;;6.85;4.25;;;;;;;24.02;78.07;99409.44;4896971;29;20756;-64
2022/08/16 06:49:29;;;;;;;9.07;3.72;;;;;;;24.16;77.39;99409.81;4896686;29;20559;-64
2022/08/16 06:51:56;;;;;;;6.20;4.00;;;;;;;24.36;76.52;99405.13;4896405;29;20493;-64
2022/08/16 06:54:21;;;;;;;7.65;4.50;;;;;;;24.61;76.38;99404.41;4895936;29;20075;-64
2022/08/16 06:56:46;;;;;;;7.75;4.00;;;;;;;24.86;75.01;99403.66;4895973;29;20477;-64
2022/08/16 06:59:12;;;;;;;10.63;4.63;;;;;;;24.97;72.85;99405.31;4895702;29;20036;-64
2022/08/16 07:01:38;;;;;;;7.93;3.90;;;;;;;25.10;71.32;99401.19;4896393;29;20104;-64
2022/08/16 07:04:03;;;;;;;5.55;3.42;;;;;;;25.25;71.08;99398.75;4894044;29;20051;-64
2022/08/16 07:06:30;;;;;;;7.18;3.55;;;;;;;25.57;70.87;99402.63;4897464;29;20020;-64
2022/08/16 07:08:56;;;;;;;7.00;4.15;;;;;;;25.81;69.67;99408.22;4896171;29;20499;-64
2022/08/16 07:11:21;;;;;;;7.03;3.58;;;;;;;26.01;67.60;99408.91;4895310;29;20040;-64
2022/08/16 07:13:47;;;;;;;6.82;3.65;;;;;;;26.20;66.28;99407.78;4895048;29;20036;-64
2022/08/16 07:16:15;;;;;;;6.63;3.65;;;;;;;26.45;65.80;99409.63;4894084;29;20473;-64
2022/08/16 07:18:44;;;;;;;5.18;3.50;;;;;;;26.69;64.41;99413.31;4893741;29;20486;-64
2022/08/16 07:21:11;;;;;;;4.60;3.22;;;;;;;27.08;63.24;99414.41;4894238;29;20077;-64
2022/08/16 07:23:38;;;;;;;7.38;3.72;;;;;;;27.32;61.67;99397.22;4894323;29;20055;-64
2022/08/16 07:26:08;;;;;;;7.38;3.70;;;;;;;27.76;60.34;99409.47;4895649;29;20454;-64
2022/08/16 07:28:34;;;;;;;8.48;3.97;;;;;;;28.14;59.10;99416.94;4895464;29;20504;-64
2022/08/16 07:31:01;;;;;;;6.20;3.38;;;;;;;28.44;59.15;99407.94;4894912;29;20103;-64
2022/08/16 07:33:28;;;;;;;6.80;3.20;;;;;;;28.63;57.36;99411.31;4895943;29;20134;-64
2022/08/16 07:35:54;;;;;;;5.38;3.22;;;;;;;28.03;58.76;99414.59;4896125;29;20033;-64
2022/08/16 07:38:19;;;;;;;7.07;3.75;;;;;;;27.34;60.85;99422.50;4889782;29;20537;-64
2022/08/16 07:40:44;;;;;;;6.97;3.58;;;;;;;26.93;62.94;99417.97;4894542;29;20044;-64
2022/08/16 07:43:10;;;;;;;5.68;3.53;;;;;;;26.68;62.98;99419.78;4893852;29;20020;-64
2022/08/16 07:45:35;;;;;;;8.13;4.78;;;;;;;26.79;63.09;99419.47;4888563;29;20025;-64
2022/08/16 07:48:01;;;;;;;5.80;3.35;;;;;;;27.30;61.39;99418.38;4890502;29;20438;-64
2022/08/16 07:50:26;;;;;;;8.30;3.25;;;;;;;27.70;59.23;99418.38;4891068;29;20044;-64
2022/08/16 07:52:52;;;;;;;5.00;3.10;;;;;;;28.15;58.85;99424.13;4890939;29;20060;-64
2022/08/16 07:55:18;;;;;;;6.60;3.30;;;;;;;28.54;57.85;99418.69;4883632;29;20028;-64
2022/08/16 07:57:44;;;;;;;9.30;3.38;;;;;;;28.92;55.26;99406.84;4887203;29;20489;-64
2022/08/16 08:00:11;;;;;;;5.22;3.08;;;;;;;29.28;56.04;99412.63;4893650;29;20064;-64
2022/08/16 08:02:37;;;;;;;6.60;3.60;;;;;;;29.67;53.13;99419.69;4894182;29;20043;-64
2022/08/16 08:05:03;;;;;;;6.10;3.30;;;;;;;29.98;52.59;99421.44;4894642;29;20029;-64
2022/08/16 08:07:28;;;;;;;10.13;3.85;;;;;;;30.06;51.48;99419.47;4891724;29;20068;-64
2022/08/16 08:09:55;;;;;;;5.47;3.30;;;;;;;30.16;51.61;99431.03;4882131;29;20032;-65
2022/08/16 08:12:21;;;;;;;6.32;3.55;;;;;;;30.25;50.49;99421.66;4874732;29;20422;-65
2022/08/16 08:14:47;;;;;;;4.50;3.10;;;;;;;30.58;50.15;99417.50;4875177;29;20403;-65
2022/08/16 08:17:14;;;;;;;7.68;3.50;;;;;;;30.95;49.48;99422.00;4876402;29;20116;-65
2022/08/16 08:19:40;;;;;;;4.95;3.20;;;;;;;31.02;49.07;99422.06;4876653;29;20025;-65
2022/08/16 08:22:05;;;;;;;5.40;2.83;;;;;;;31.28;47.40;99430.59;4876374;29;20112;-65
2022/08/16 08:24:31;;;;;;;6.35;3.63;;;;;;;31.13;49.11;99419.66;4875180;29;20096;-65
2022/08/16 08:26:58;;;;;;;5.63;3.53;;;;;;;31.51;48.50;99423.88;4875270;29;20048;-65
2022/08/16 08:29:24;;;;;;;6.15;3.42;;;;;;;31.65;47.04;99419.34;4875309;29;20546;-65
2022/08/16 08:31:51;;;;;;;6.53;3.30;;;;;;;31.65;46.21;99424.84;4880720;29;20115;-65
2022/08/16 08:34:17;;;;;;;5.22;3.40;;;;;;;31.69;46.57;99432.50;4893848;29;20127;-65
2022/08/16 08:36:43;;;;;;;8.50;3.17;;;;;;;31.59;46.01;99431.13;4894278;29;20515;-65
2022/08/16 08:39:09;;;;;;;6.47;3.38;;;;;;;31.91;45.18;99430.63;4895127;29;20111;-65
2022/08/16 08:41:34;;;;;;;6.00;3.30;;;;;;;32.27;45.34;99436.78;4897814;29;20032;-65
2022/08/16 08:44:00;;;;;;;5.95;3.47;;;;;;;32.27;43.79;99431.28;4894900;29;20036;-65
2022/08/16 08:46:27;;;;;;;6.13;3.42;;;;;;;32.59;43.62;99430.63;4895218;29;20028;-65
2022/08/16 08:48:54;;;;;;;5.00;3.10;;;;;;;32.58;43.51;99433.59;4893835;29;20397;-65
2022/08/16 08:51:20;;;;;;;7.35;3.78;;;;;;;32.64;45.01;99441.91;4894245;29;20298;-65
2022/08/16 08:53:45;;;;;;;6.22;3.83;;;;;;;32.88;42.28;99444.13;4894251;29;20024;-65
2022/08/16 08:56:12;;;;;;;8.60;3.97;;;;;;;33.09;42.43;99438.53;4894160;29;20093;-65
2022/08/16 08:58:37;;;;;;;6.75;3.58;;;;;;;33.06;41.98;99444.44;4893872;29;20032;-65
2022/08/16 09:01:05;;;;;;;7.63;3.58;;;;;;;33.24;42.25;99436.44;4893811;29;20059;-66
2022/08/16 09:03:31;;;;;;;7.20;3.75;;;;;;;33.49;41.96;99422.94;4895029;29;20087;-67
2022/08/16 09:05:57;;;;;;;8.30;3.60;;;;;;;33.74;40.34;99442.47;4895063;29;20035;-67
2022/08/16 09:08:23;;;;;;;6.35;3.80;;;;;;;33.90;40.65;99439.28;4897924;29;20040;-67
2022/08/16 09:10:48;;;;;;;5.13;3.70;;;;;;;33.67;41.46;99445.25;4898887;29;20047;-67
2022/08/16 09:13:15;;;;;;;6.47;4.18;;;;;;;33.70;40.94;99446.72;4898961;29;20037;-67
2022/08/16 09:15:40;;;;;;;5.97;3.53;;;;;;;33.66;41.01;99445.44;4897935;29;20040;-67
2022/08/16 09:18:05;;;;;;;6.15;3.83;;;;;;;34.24;40.89;99445.44;4898801;29;20039;-67
2022/08/16 09:20:31;;;;;;;5.40;3.47;;;;;;;34.53;40.13;99452.44;4898615;29;20047;-67
2022/08/16 09:22:58;;;;;;;6.85;3.28;;;;;;;34.70;38.88;99455.59;4897991;29;20036;-67
2022/08/16 09:25:24;;;;;;;5.22;4.00;;;;;;;34.97;38.15;99451.66;4899195;29;20055;-67
2022/08/16 09:27:49;;;;;;;5.40;3.40;;;;;;;35.14;37.62;99459.22;4897009;29;20028;-67
2022/08/16 09:30:15;;;;;;;8.68;3.50;;;;;;;35.20;38.28;99455.59;4898109;29;20041;-67
2022/08/16 09:32:40;;;;;;;5.13;3.03;;;;;;;35.01;37.00;99456.53;4893587;29;20032;-67
2022/08/16 09:35:07;;;;;;;9.02;3.67;;;;;;;34.21;38.88;99445.88;4897600;29;20115;-68
2022/08/16 09:37:33;;;;;;;8.15;4.00;;;;;;;34.24;40.53;99441.81;4889134;29;20029;-68
2022/08/16 09:39:59;;;;;;;6.03;3.40;;;;;;;34.33;40.07;99451.59;4878225;29;20041;-70
2022/08/16 09:42:29;;;;;;;9.65;4.22;;;;;;;34.32;38.90;99449.88;4879373;29;20059;-70
2022/08/16 09:44:55;;;;;;;7.40;4.18;;;;;;;33.85;39.82;99456.50;4878089;29;20044;-69
2022/08/16 09:47:20;;;;;;;6.28;3.85;;;;;;;33.98;39.48;99455.66;4896308;29;20025;-69
2022/08/16 09:49:46;;;;;;;4.60;3.30;;;;;;;34.05;40.03;99451.00;4878193;29;20052;-69
2022/08/16 09:52:11;;;;;;;7.85;4.25;;;;;;;34.54;39.07;99456.88;4878127;29;20430;-69
2022/08/16 09:54:39;;;;;;;6.22;3.78;;;;;;;34.70;37.80;99455.59;4878569;29;20120;-69
2022/08/16 09:57:05;;;;;;;5.45;3.38;;;;;;;34.27;38.20;99455.19;4879303;29;20350;-69
2022/08/16 09:59:31;;;;;;;7.95;3.63;;;;;;;33.65;39.27;99454.78;4862278;29;20039;-69
2022/08/16 10:01:57;;;;;;;8.60;3.60;;;;;;;33.39;39.96;99445.34;4885325;29;20047;-69
2022/08/16 10:04:24;;;;;;;8.02;3.90;;;;;;;33.17;40.56;99451.25;4885795;29;20029;-67
2022/08/16 10:06:50;;;;;;;7.00;3.28;;;;;;;33.41;39.67;99438.81;4879112;29;20025;-69
2022/08/16 10:09:16;;;;;;;5.50;3.85;;;;;;;34.02;40.13;99437.63;4879088;29;20036;-69
2022/08/16 10:14:29;;;;;;;5.75;3.63;;;;;;;33.98;40.43;99451.00;4878991;29;20096;-69
2022/08/16 10:16:57;;;;;;;5.75;3.45;;;;;;;33.70;40.33;99441.19;4879229;29;20098;-69
2022/08/16 10:19:23;;;;;;;6.25;3.78;;;;;;;33.27;40.09;99451.72;4878813;29;20108;-69
2022/08/16 10:21:49;;;;;;;8.15;4.30;;;;;;;32.65;40.44;99456.53;4878227;29;20235;-69
2022/08/16 10:24:14;;;;;;;5.65;3.40;;;;;;;32.21;41.14;99448.59;4887170;29;20027;-69
2022/08/16 10:26:40;;;;;;;6.10;3.13;;;;;;;32.40;40.54;99444.31;4897453;29;20088;-68
2022/08/16 10:29:06;;;;;;;4.85;3.05;;;;;;;33.02;40.57;99443.16;4897518;29;20036;-66
2022/08/16 10:31:32;;;;;;;4.68;3.30;;;;;;;33.77;40.64;99439.28;4897293;29;20060;-66
2022/08/16 10:34:00;;;;;;;5.10;2.70;;;;;;;34.22;38.37;99441.19;4897528;29;20062;-66
2022/08/16 10:36:26;;;;;;;4.03;2.85;;;;;;;34.46;37.15;99440.56;4866032;29;20466;-66
2022/08/16 10:38:51;;;;;;;5.78;3.10;;;;;;;34.76;36.78;99444.50;4886229;29;20039;-66
2022/08/16 10:41:16;;;;;;;4.00;2.63;;;;;;;35.04;37.13;99441.44;4877797;29;20087;-66
2022/08/16 10:43:42;;;;;;;6.30;3.08;;;;;;;35.29;35.17;99448.72;4877942;29;20028;-66
2022/08/16 10:46:13;;;;;;;4.72;2.67;;;;;;;35.27;35.77;99452.78;4882973;29;20056;-67
2022/08/16 10:48:40;;;;;;;4.07;2.80;;;;;;;34.56;35.88;99446.47;4894689;29;20095;-66
2022/08/16 10:51:06;;;;;;;4.75;2.88;;;;;;;34.83;36.43;99444.47;4894586;29;20056;-66
2022/08/16 10:53:32;;;;;;;4.93;3.30;;;;;;;35.15;37.07;99437.97;4881302;29;20393;-66
2022/08/16 10:55:59;;;;;;;6.68;3.20;;;;;;;35.66;36.17;99447.88;4876103;29;20040;-66
2022/08/16 10:58:25;;;;;;;5.47;2.83;;;;;;;35.88;35.38;99455.81;4887377;29;20588;-66
2022/08/16 11:00:51;;;;;;;4.78;3.40;;;;;;;36.28;34.85;99449.69;4877046;29;20052;-68
2022/08/16 11:03:16;;;;;;;4.78;2.60;;;;;;;36.49;33.97;99451.22;4889312;29;20050;-67
2022/08/16 11:05:42;;;;;;;3.85;2.42;;;;;;;36.62;34.09;99446.38;4886247;29;20069;-67
2022/08/16 11:08:10;;;;;;;4.28;2.58;;;;;;;36.51;34.14;99449.91;4878368;29;20082;-67
2022/08/16 11:10:38;;;;;;;4.60;2.58;;;;;;;35.93;33.95;99450.47;4877992;29;20021;-67
2022/08/16 11:13:05;;;;;;;4.95;2.55;;;;;;;35.71;34.25;99438.88;4878519;29;20571;-67
2022/08/16 11:15:31;;;;;;;4.95;2.60;;;;;;;35.92;35.38;99435.75;4878834;29;20082;-66
2022/08/16 11:17:57;;;;;;;4.15;2.75;;;;;;;35.77;35.22;99429.69;4878535;29;20032;-67
2022/08/16 11:20:23;;;;;;;6.93;2.90;;;;;;;36.11;34.38;99440.28;4878600;29;20028;-67
2022/08/16 11:22:49;;;;;;;4.47;2.90;;;;;;;36.48;33.43;99438.44;4878478;29;20404;-67
2022/08/16 11:25:19;;;;;;;4.43;3.20;;;;;;;36.59;32.92;99432.13;4878365;29;20039;-67
2022/08/16 11:27:45;;;;;;;7.10;2.90;;;;;;;36.40;32.83;99434.03;4878590;29;20509;-67
2022/08/16 11:30:13;;;;;;;4.40;2.70;;;;;;;36.23;32.95;99424.59;4878372;29;20474;-67